Time;durP1;ratioP1;P1;durP2;ratioP2;P2;SDS_P1;SDS_P2;PMS_P1;PMS_P2;Temp;Humidity;BMP_temperature;BMP_pressure;BME280_temperature;BME280_humidity;BME280_pressure;Samples;Min_cycle;Max_cycle;Signal;HPM_P1;HPM_P2
2021/12/04 00:02:05;;;;;;;0.87;0.80;;;19.40;38.30;;;;;;4998812;28;20443;-68
2021/12/04 00:04:35;;;;;;;1.00;0.90;;;19.40;38.30;;;;;;4998749;28;20544;-68
2021/12/04 00:07:02;;;;;;;1.27;0.80;;;19.40;38.30;;;;;;5001187;28;20429;-68
2021/12/04 00:09:29;;;;;;;0.70;0.67;;;19.40;38.30;;;;;;5004306;28;20455;-68
2021/12/04 00:11:59;;;;;;;1.00;0.80;;;19.40;38.30;;;;;;5000492;28;20431;-68
2021/12/04 00:14:26;;;;;;;0.97;0.80;;;19.40;38.30;;;;;;4998535;28;20540;-68
2021/12/04 00:16:52;;;;;;;0.90;0.80;;;19.30;38.20;;;;;;5000216;28;20465;-68
2021/12/04 00:19:18;;;;;;;0.93;0.80;;;19.30;38.20;;;;;;4999523;28;20496;-68
2021/12/04 00:21:44;;;;;;;0.90;0.73;;;19.30;38.20;;;;;;5001489;28;20525;-68
2021/12/04 00:24:11;;;;;;;0.80;0.70;;;19.40;38.30;;;;;;5003646;28;20513;-69
2021/12/04 00:26:36;;;;;;;1.10;0.80;;;19.40;38.40;;;;;;5000773;28;20454;-68
2021/12/04 00:29:03;;;;;;;0.70;0.70;;;19.40;38.30;;;;;;4997991;28;20439;-68
2021/12/04 00:31:28;;;;;;;1.00;0.80;;;19.40;38.40;;;;;;5001539;28;20227;-68
2021/12/04 00:33:54;;;;;;;1.00;0.80;;;19.30;38.30;;;;;;4999009;28;20465;-68
2021/12/04 00:36:55;;;;;;;0.80;0.70;;;19.30;38.30;;;;;;5002374;28;20400;-68
2021/12/04 00:50:04;;;;;;;0.93;0.80;;;19.30;38.30;;;;;;4998709;28;20508;-69
2021/12/04 00:52:30;;;;;;;1.10;1.00;;;19.30;38.40;;;;;;5000380;28;20482;-69
2021/12/04 00:54:55;;;;;;;2.20;0.73;;;19.30;38.30;;;;;;5000319;28;20481;-68
2021/12/04 00:57:22;;;;;;;0.80;0.70;;;19.30;38.30;;;;;;5000394;28;20216;-68
2021/12/04 00:59:48;;;;;;;1.10;0.70;;;19.30;38.50;;;;;;4999655;28;20255;-68
2021/12/04 01:02:17;;;;;;;0.87;0.70;;;19.30;38.40;;;;;;4998361;28;20424;-69
2021/12/04 01:04:42;;;;;;;0.93;0.83;;;19.30;38.40;;;;;;4996475;28;20282;-69
2021/12/04 01:07:08;;;;;;;0.80;0.73;;;19.30;38.40;;;;;;4998631;28;21013;-68
2021/12/04 01:09:35;;;;;;;0.80;0.77;;;19.30;38.30;;;;;;5001429;28;20256;-68
2021/12/04 01:12:01;;;;;;;0.87;0.77;;;19.30;38.40;;;;;;4998368;28;20311;-68
2021/12/04 01:14:27;;;;;;;0.77;0.70;;;19.30;38.40;;;;;;4999604;28;20549;-69
2021/12/04 01:16:53;;;;;;;1.00;0.70;;;19.30;38.40;;;;;;4999979;28;20239;-68
2021/12/04 01:19:19;;;;;;;0.93;0.80;;;19.30;38.30;;;;;;4998397;28;20500;-69
2021/12/04 01:21:46;;;;;;;0.87;0.80;;;19.30;38.30;;;;;;4999947;28;20876;-69
2021/12/04 01:24:13;;;;;;;1.90;0.80;;;19.30;38.40;;;;;;4998359;28;20474;-69
2021/12/04 01:26:39;;;;;;;1.80;0.70;;;19.30;38.30;;;;;;4999119;28;20503;-69
2021/12/04 01:29:05;;;;;;;1.00;0.90;;;19.30;38.40;;;;;;5003171;28;20812;-69
2021/12/04 01:31:30;;;;;;;0.70;0.70;;;19.30;39.10;;;;;;4997974;28;20949;-68
2021/12/04 01:33:56;;;;;;;0.90;0.77;;;19.30;38.30;;;;;;4996143;28;20221;-67
2021/12/04 01:36:23;;;;;;;0.70;0.60;;;19.30;38.50;;;;;;4999569;28;20244;-68
2021/12/04 01:38:49;;;;;;;0.70;0.60;;;19.30;38.40;;;;;;4998146;28;20235;-68
2021/12/04 01:41:16;;;;;;;0.77;0.77;;;19.30;38.40;;;;;;5001684;28;20449;-69
2021/12/04 01:43:42;;;;;;;1.00;0.60;;;19.30;38.40;;;;;;5002645;28;20540;-69
2021/12/04 01:46:07;;;;;;;2.40;0.80;;;19.30;38.50;;;;;;5012616;28;20445;-68
2021/12/04 01:48:33;;;;;;;0.70;0.70;;;19.30;38.50;;;;;;5005980;28;20420;-68
2021/12/04 01:50:59;;;;;;;0.73;0.70;;;19.30;38.50;;;;;;5004676;28;20232;-69
2021/12/04 01:53:26;;;;;;;0.70;0.63;;;19.30;38.50;;;;;;4992699;28;20537;-68
2021/12/04 01:55:56;;;;;;;0.80;0.60;;;19.30;38.50;;;;;;5005982;28;20231;-68
2021/12/04 01:58:23;;;;;;;0.80;0.60;;;19.30;38.50;;;;;;5003699;28;20433;-68
2021/12/04 02:00:50;;;;;;;0.80;0.80;;;19.30;38.40;;;;;;5002185;28;20417;-68
2021/12/04 02:03:17;;;;;;;1.20;0.80;;;19.30;38.60;;;;;;5007021;28;20957;-69
2021/12/04 02:05:44;;;;;;;0.80;0.63;;;19.30;38.40;;;;;;5003373;28;20448;-69
2021/12/04 02:08:13;;;;;;;0.83;0.70;;;19.30;38.30;;;;;;5006973;28;20431;-68
2021/12/04 02:10:40;;;;;;;0.83;0.67;;;19.30;38.50;;;;;;5002356;28;20469;-69
2021/12/04 02:13:05;;;;;;;1.57;0.67;;;19.30;38.50;;;;;;5006913;28;20456;-69
2021/12/04 02:15:31;;;;;;;0.67;0.63;;;19.30;38.50;;;;;;5002763;28;20429;-68
2021/12/04 02:17:58;;;;;;;0.77;0.67;;;19.30;38.50;;;;;;5008235;28;20225;-68
2021/12/04 02:20:27;;;;;;;0.73;0.60;;;19.30;38.50;;;;;;5004644;28;20450;-68
2021/12/04 02:22:53;;;;;;;0.80;0.70;;;19.30;38.40;;;;;;5006467;28;20439;-69
2021/12/04 02:25:19;;;;;;;0.90;0.70;;;19.30;38.50;;;;;;5006817;28;20425;-69
2021/12/04 02:27:45;;;;;;;0.80;0.70;;;19.30;38.50;;;;;;5002870;28;20228;-69
2021/12/04 02:30:14;;;;;;;0.70;0.60;;;19.30;38.50;;;;;;4995090;28;20227;-69
2021/12/04 02:32:41;;;;;;;0.70;0.60;;;19.30;38.50;;;;;;5006355;28;20446;-69
2021/12/04 02:35:08;;;;;;;0.80;0.70;;;19.30;38.50;;;;;;5006055;28;20483;-68
2021/12/04 02:37:35;;;;;;;0.80;0.67;;;19.30;38.50;;;;;;5002534;28;20925;-68
2021/12/04 02:40:03;;;;;;;0.70;0.60;;;19.30;38.50;;;;;;5004094;28;20442;-68
2021/12/04 02:42:30;;;;;;;1.20;1.00;;;19.30;38.50;;;;;;5004679;28;20446;-68
2021/12/04 02:44:58;;;;;;;0.70;0.60;;;19.30;38.50;;;;;;5007594;28;20477;-68
2021/12/04 02:47:25;;;;;;;0.70;0.70;;;19.30;38.50;;;;;;5006005;28;20413;-69
2021/12/04 02:49:51;;;;;;;1.33;0.70;;;19.30;38.50;;;;;;5008512;28;20446;-68
2021/12/04 02:52:18;;;;;;;0.60;0.60;;;19.30;38.40;;;;;;4998406;28;20631;-68
2021/12/04 02:54:43;;;;;;;1.00;0.80;;;19.30;38.50;;;;;;5003577;28;20212;-69
2021/12/04 02:57:15;;;;;;;0.60;0.60;;;19.30;38.50;;;;;;5002899;28;20456;-68
2021/12/04 02:59:42;;;;;;;1.57;0.70;;;19.30;38.50;;;;;;5000487;28;20216;-69
2021/12/04 03:02:31;;;;;;;0.60;0.60;;;19.30;38.50;;;;;;5005115;28;20525;-68
2021/12/04 03:04:58;;;;;;;1.30;0.70;;;19.30;38.50;;;;;;5000299;28;21037;-68
2021/12/04 03:07:24;;;;;;;1.37;0.63;;;19.30;38.60;;;;;;5001483;28;20817;-69
2021/12/04 03:09:50;;;;;;;0.60;0.53;;;19.30;38.60;;;;;;5001209;28;21253;-69
2021/12/04 03:12:23;;;;;;;0.60;0.60;;;19.30;38.60;;;;;;5001685;28;20223;-69
2021/12/04 03:14:50;;;;;;;0.70;0.63;;;19.30;38.50;;;;;;5001951;28;20228;-69
2021/12/04 03:17:18;;;;;;;0.60;0.50;;;19.30;38.60;;;;;;5000884;28;20420;-68
2021/12/04 03:19:44;;;;;;;0.70;0.60;;;19.30;38.60;;;;;;5000258;28;20437;-68
2021/12/04 03:22:10;;;;;;;0.80;0.60;;;19.30;38.50;;;;;;5005821;28;20448;-68
2021/12/04 03:24:40;;;;;;;0.70;0.57;;;19.30;38.60;;;;;;5002490;28;20227;-68
2021/12/04 03:27:06;;;;;;;0.70;0.53;;;19.30;38.60;;;;;;5001416;28;20427;-68
2021/12/04 03:29:34;;;;;;;0.60;0.50;;;19.30;38.60;;;;;;5001110;28;20955;-68
2021/12/04 03:42:57;;;;;;;0.80;0.60;;;19.30;38.60;;;;;;5000778;28;20864;-68
2021/12/04 03:45:23;;;;;;;0.73;0.60;;;19.30;38.50;;;;;;4999238;28;20429;-68
2021/12/04 03:47:51;;;;;;;0.70;0.60;;;19.30;38.60;;;;;;5000318;28;20266;-68
2021/12/04 03:50:17;;;;;;;0.70;0.60;;;19.30;38.60;;;;;;5002443;28;20244;-68
2021/12/04 03:52:43;;;;;;;0.73;0.60;;;19.30;39.30;;;;;;4998464;28;20450;-68
2021/12/04 03:55:09;;;;;;;0.80;0.80;;;19.30;38.60;;;;;;4999233;28;20953;-68
2021/12/04 03:57:43;;;;;;;0.60;0.50;;;19.30;38.60;;;;;;5002693;28;20417;-68
2021/12/04 04:00:10;;;;;;;0.67;0.60;;;19.30;38.60;;;;;;4998762;28;20439;-68
2021/12/04 04:02:36;;;;;;;0.70;0.70;;;19.30;38.60;;;;;;4998792;28;21022;-68
2021/12/04 04:05:01;;;;;;;0.80;0.70;;;19.30;38.60;;;;;;5003319;28;20528;-68
2021/12/04 04:07:27;;;;;;;0.80;0.63;;;19.30;38.60;;;;;;5000565;28;20236;-68
2021/12/04 04:09:52;;;;;;;0.90;0.73;;;19.30;38.60;;;;;;5001847;28;20220;-74
2021/12/04 04:12:18;;;;;;;0.80;0.60;;;19.30;38.60;;;;;;4997882;28;20212;-80
2021/12/04 04:14:43;;;;;;;1.47;0.80;;;19.30;38.60;;;;;;5002766;28;20362;-78
2021/12/04 04:17:10;;;;;;;0.80;0.60;;;19.30;38.60;;;;;;4999907;28;20219;-80
2021/12/04 04:19:35;;;;;;;0.70;0.60;;;19.30;38.60;;;;;;4999536;28;20229;-78
2021/12/04 04:22:01;;;;;;;1.03;0.70;;;19.30;38.60;;;;;;5002811;28;20560;-77
2021/12/04 04:24:29;;;;;;;0.70;0.67;;;19.30;38.60;;;;;;4999168;28;20582;-76
2021/12/04 04:26:55;;;;;;;0.80;0.60;;;19.30;38.60;;;;;;5002606;28;20236;-76
2021/12/04 04:29:22;;;;;;;0.80;0.60;;;19.30;38.60;;;;;;4999475;28;20511;-76
2021/12/04 04:31:49;;;;;;;0.67;0.60;;;19.30;38.60;;;;;;4999454;28;20453;-76
2021/12/04 04:34:25;;;;;;;0.70;0.70;;;19.30;38.60;;;;;;4999876;28;20446;-75
2021/12/04 04:59:26;;;;;;;0.70;0.67;;;19.20;38.50;;;;;;5001786;28;20448;-74
2021/12/04 05:12:45;;;;;;;0.60;0.60;;;19.20;38.50;;;;;;4995674;28;20965;-72
2021/12/04 05:15:15;;;;;;;1.00;0.70;;;19.20;38.50;;;;;;5000087;28;20474;-73
2021/12/04 05:20:21;;;;;;;0.73;0.60;;;19.30;38.60;;;;;;4999118;28;20810;-73
2021/12/04 05:22:47;;;;;;;0.70;0.70;;;19.20;38.50;;;;;;4982382;28;20817;-73
2021/12/04 05:25:13;;;;;;;1.40;0.70;;;19.20;38.50;;;;;;4995793;28;20448;-73
2021/12/04 05:27:39;;;;;;;0.97;0.60;;;19.20;38.50;;;;;;5001810;28;20216;-72
2021/12/04 05:30:06;;;;;;;1.63;0.80;;;19.30;38.50;;;;;;4999232;28;20417;-72
2021/12/04 05:32:32;;;;;;;0.80;0.80;;;19.30;38.50;;;;;;4997921;28;20846;-73
2021/12/04 05:34:58;;;;;;;0.90;0.80;;;19.30;38.60;;;;;;5000838;28;21009;-73
2021/12/04 05:37:23;;;;;;;0.70;0.70;;;19.30;38.40;;;;;;4997312;28;20568;-73
2021/12/04 05:39:49;;;;;;;0.80;0.70;;;19.30;38.40;;;;;;4998585;28;20291;-73
2021/12/04 05:42:14;;;;;;;0.80;0.70;;;19.30;38.50;;;;;;4997969;28;20621;-72
2021/12/04 05:44:42;;;;;;;0.83;0.77;;;19.30;38.40;;;;;;4990325;28;20251;-72
2021/12/04 05:47:16;;;;;;;0.70;0.70;;;19.30;38.40;;;;;;5002647;28;20569;-72
2021/12/04 05:57:07;;;;;;;0.90;0.80;;;19.30;38.20;;;;;;4997122;28;20926;-78
2021/12/04 05:59:33;;;;;;;0.80;0.60;;;19.30;38.20;;;;;;4998107;28;20473;-80
2021/12/04 06:01:59;;;;;;;0.73;0.67;;;19.30;38.20;;;;;;5001157;28;20449;-75
2021/12/04 06:04:25;;;;;;;0.70;0.60;;;19.30;38.20;;;;;;4999475;28;20255;-77
2021/12/04 06:06:51;;;;;;;0.70;0.60;;;19.30;38.10;;;;;;5000745;28;20962;-76
2021/12/04 06:09:17;;;;;;;3.23;0.80;;;19.30;38.10;;;;;;4998741;28;20447;-75
2021/12/04 06:11:43;;;;;;;0.77;0.70;;;19.30;38.10;;;;;;4999220;28;20685;-76
2021/12/04 06:14:09;;;;;;;1.27;0.63;;;19.30;38.10;;;;;;5000567;28;20508;-75
2021/12/04 06:16:34;;;;;;;0.70;0.60;;;19.30;38.00;;;;;;4996252;28;20705;-75
2021/12/04 06:19:10;;;;;;;0.80;0.80;;;19.30;38.10;;;;;;4998595;28;20698;-74
2021/12/04 06:24:20;;;;;;;2.13;0.80;;;19.30;38.10;;;;;;5000019;28;20579;-74
2021/12/04 06:26:46;;;;;;;0.70;0.70;;;19.30;38.10;;;;;;5002656;28;20536;-74
2021/12/04 06:29:11;;;;;;;0.70;0.67;;;19.40;38.20;;;;;;5007325;28;20299;-73
2021/12/04 06:31:37;;;;;;;0.97;0.77;;;19.30;38.10;;;;;;5002430;28;20235;-73
2021/12/04 06:34:02;;;;;;;0.80;0.67;;;19.30;38.10;;;;;;5003813;28;20224;-73
2021/12/04 06:36:28;;;;;;;0.70;0.60;;;19.30;38.10;;;;;;5001820;28;20773;-73
2021/12/04 06:38:54;;;;;;;0.70;0.67;;;19.30;38.00;;;;;;5000977;28;20224;-72
2021/12/04 06:41:21;;;;;;;0.80;0.73;;;19.30;38.10;;;;;;4999330;28;20221;-72
2021/12/04 06:43:49;;;;;;;0.80;0.80;;;19.30;38.10;;;;;;5001969;28;20446;-72
2021/12/04 06:46:17;;;;;;;0.80;0.80;;;19.40;38.20;;;;;;5002003;28;21350;-74
2021/12/04 06:49:01;;;;;;;0.80;0.70;;;19.40;38.10;;;;;;5001999;28;20445;-73
2021/12/04 06:54:09;;;;;;;0.70;0.60;;;19.40;38.10;;;;;;5003814;28;20448;-72
2021/12/04 06:56:37;;;;;;;0.70;0.60;;;19.40;38.10;;;;;;5007085;28;20242;-73
2021/12/04 06:59:07;;;;;;;0.77;0.70;;;19.30;38.00;;;;;;5005885;28;20454;-72
2021/12/04 07:01:34;;;;;;;0.77;0.77;;;19.40;38.10;;;;;;4998570;28;20442;-73
2021/12/04 07:04:00;;;;;;;0.70;0.70;;;19.40;38.10;;;;;;5000815;28;20413;-73
2021/12/04 07:06:27;;;;;;;0.80;0.70;;;19.40;38.10;;;;;;4989238;28;20985;-73
2021/12/04 07:08:52;;;;;;;1.00;0.70;;;19.40;38.10;;;;;;5000382;28;20804;-73
2021/12/04 07:11:18;;;;;;;0.80;0.70;;;19.40;38.00;;;;;;5004765;28;20452;-74
2021/12/04 07:13:44;;;;;;;0.93;0.70;;;19.40;38.10;;;;;;5002736;28;20223;-72
2021/12/04 07:16:13;;;;;;;0.70;0.70;;;19.40;38.10;;;;;;4999774;28;20243;-72
2021/12/04 07:18:38;;;;;;;1.53;0.70;;;19.40;38.00;;;;;;5001791;28;20426;-72
2021/12/04 07:21:05;;;;;;;0.80;0.70;;;19.40;38.10;;;;;;5003944;28;20469;-76
2021/12/04 07:23:31;;;;;;;0.90;0.70;;;19.40;38.00;;;;;;5005126;28;20318;-76
2021/12/04 07:25:58;;;;;;;1.03;0.73;;;19.40;38.00;;;;;;5002507;28;20460;-75
2021/12/04 07:28:24;;;;;;;3.47;0.90;;;19.40;37.80;;;;;;5002346;28;20844;-78
2021/12/04 07:30:50;;;;;;;0.70;0.60;;;19.40;37.80;;;;;;5003402;28;20519;-70
2021/12/04 07:33:15;;;;;;;1.73;0.80;;;19.50;37.80;;;;;;5000584;28;20267;-69
2021/12/04 07:35:41;;;;;;;0.70;0.70;;;19.50;37.80;;;;;;5000383;28;20237;-69
2021/12/04 07:38:07;;;;;;;1.20;1.00;;;19.50;37.70;;;;;;5002540;28;20669;-71
2021/12/04 07:40:33;;;;;;;0.90;0.80;;;19.50;37.70;;;;;;5001712;28;20227;-72
2021/12/04 07:42:59;;;;;;;1.00;0.80;;;19.50;37.60;;;;;;5000498;28;20454;-74
2021/12/04 07:45:24;;;;;;;1.13;0.97;;;19.50;37.60;;;;;;5000796;28;20232;-73
2021/12/04 07:47:50;;;;;;;1.17;1.07;;;19.60;37.70;;;;;;5000943;28;20287;-75
2021/12/04 07:50:16;;;;;;;0.87;0.60;;;19.50;37.60;;;;;;5001738;28;20216;-75
2021/12/04 07:52:42;;;;;;;0.70;0.63;;;19.60;37.80;;;;;;4999347;28;20247;-76
2021/12/04 07:55:09;;;;;;;1.00;0.70;;;19.50;37.60;;;;;;5004889;28;20306;-74
2021/12/04 07:57:35;;;;;;;2.00;0.87;;;19.50;37.70;;;;;;4998616;28;20216;-71
2021/12/04 08:00:05;;;;;;;0.70;0.70;;;19.50;37.70;;;;;;5005208;28;20473;-73
2021/12/04 08:02:30;;;;;;;0.83;0.70;;;19.50;37.70;;;;;;5004002;28;20449;-72
2021/12/04 08:04:56;;;;;;;1.27;0.77;;;19.50;37.80;;;;;;5003547;28;20476;-72
2021/12/04 08:07:21;;;;;;;1.23;1.00;;;19.50;37.80;;;;;;5003958;28;20232;-71
2021/12/04 08:09:47;;;;;;;2.17;1.00;;;19.50;37.80;;;;;;5002711;28;21100;-71
2021/12/04 08:12:13;;;;;;;0.80;0.77;;;19.50;37.70;;;;;;5001278;28;20231;-71
2021/12/04 08:14:39;;;;;;;1.10;0.87;;;19.50;37.80;;;;;;5000978;28;20671;-71
2021/12/04 08:17:05;;;;;;;1.00;0.80;;;19.50;37.80;;;;;;5000289;28;21765;-70
2021/12/04 08:19:32;;;;;;;0.90;0.70;;;19.50;37.80;;;;;;4998879;28;20465;-70
2021/12/04 08:21:58;;;;;;;2.40;1.00;;;19.50;37.80;;;;;;5000445;28;20537;-70
2021/12/04 08:24:24;;;;;;;1.53;0.70;;;19.50;37.80;;;;;;5000645;28;21001;-70
2021/12/04 08:26:50;;;;;;;0.80;0.70;;;19.50;37.90;;;;;;5002664;28;20450;-70
2021/12/04 08:29:15;;;;;;;2.00;0.93;;;19.50;37.90;;;;;;4998261;28;20270;-70
2021/12/04 08:31:42;;;;;;;1.77;0.83;;;19.50;37.90;;;;;;5002290;28;20432;-70
2021/12/04 08:34:08;;;;;;;1.00;0.70;;;19.50;38.00;;;;;;5000345;28;20231;-69
2021/12/04 08:36:33;;;;;;;5.93;0.90;;;19.50;38.00;;;;;;5001822;28;20873;-69
2021/12/04 08:39:04;;;;;;;0.93;0.70;;;19.50;38.00;;;;;;5000861;28;20224;-70
2021/12/04 08:41:30;;;;;;;0.83;0.80;;;19.50;38.00;;;;;;5001523;28;20262;-69
2021/12/04 08:43:56;;;;;;;3.97;0.83;;;19.50;38.00;;;;;;5002278;28;20962;-69
2021/12/04 08:46:23;;;;;;;0.90;0.70;;;19.50;38.00;;;;;;5000241;28;20690;-70
2021/12/04 08:48:51;;;;;;;0.90;0.77;;;19.50;38.00;;;;;;5004038;28;20227;-69
2021/12/04 08:51:21;;;;;;;0.90;0.80;;;19.50;38.00;;;;;;4997270;28;20546;-69
2021/12/04 08:53:46;;;;;;;1.17;0.90;;;19.50;38.10;;;;;;4998100;28;20420;-69
2021/12/04 08:56:12;;;;;;;2.00;1.00;;;19.50;38.00;;;;;;4999569;28;20444;-69
2021/12/04 08:58:40;;;;;;;0.90;0.80;;;19.50;38.00;;;;;;5007272;28;20216;-69
2021/12/04 09:01:13;;;;;;;0.80;0.80;;;19.50;38.10;;;;;;5002093;28;20274;-69
2021/12/04 09:03:47;;;;;;;1.03;0.93;;;19.50;38.10;;;;;;4989932;28;20449;-69
2021/12/04 09:06:14;;;;;;;0.80;0.77;;;19.50;38.10;;;;;;4997977;28;20462;-70
2021/12/04 09:08:40;;;;;;;0.83;0.70;;;19.50;38.10;;;;;;4999172;28;20472;-69
2021/12/04 09:11:12;;;;;;;1.93;1.00;;;19.50;38.10;;;;;;4998032;28;20533;-69
2021/12/04 09:13:38;;;;;;;0.87;0.80;;;19.50;38.10;;;;;;4998361;28;20501;-69
2021/12/04 09:16:05;;;;;;;0.80;0.70;;;19.40;38.10;;;;;;4998038;28;20559;-69
2021/12/04 09:18:30;;;;;;;1.00;0.90;;;19.40;38.10;;;;;;5001173;28;20841;-69
2021/12/04 09:20:56;;;;;;;1.67;0.70;;;19.50;38.20;;;;;;5000942;28;20946;-69
2021/12/04 09:23:25;;;;;;;1.10;0.80;;;19.50;38.20;;;;;;4996222;28;20279;-66
2021/12/04 09:25:58;;;;;;;1.10;1.00;;;19.40;38.20;;;;;;5001585;28;20223;-67
2021/12/04 10:04:08;;;;;;;1.47;0.90;;;19.40;38.30;;;;;;5000976;28;20827;-80
2021/12/04 10:12:01;;;;;;;1.50;0.80;;;19.50;38.30;;;;;;5001726;28;20517;-71
2021/12/04 10:23:04;;;;;;;1.13;0.80;;;19.50;38.00;;;;;;4927294;28;21284;-72
2021/12/04 10:33:45;;;;;;;2.33;1.80;;;19.50;38.10;;;;;;5001936;28;20504;-79
2021/12/04 10:36:12;;;;;;;1.27;0.90;;;19.50;38.10;;;;;;5002610;28;20465;-71
2021/12/04 10:38:44;;;;;;;1.77;0.90;;;19.50;38.10;;;;;;5004595;28;20449;-67
2021/12/04 10:41:16;;;;;;;1.27;1.17;;;19.50;38.20;;;;;;5000887;28;20417;-66
2021/12/04 10:43:42;;;;;;;1.07;0.80;;;19.50;38.20;;;;;;5002723;28;20964;-66
2021/12/04 10:46:21;;;;;;;1.00;0.90;;;19.50;38.20;;;;;;5002598;28;20445;-66
2021/12/04 10:48:51;;;;;;;1.03;0.90;;;19.50;38.30;;;;;;5000951;28;20216;-66
2021/12/04 10:53:53;;;;;;;1.67;0.90;;;19.50;38.30;;;;;;5002357;28;20882;-64
2021/12/04 10:56:47;;;;;;;1.20;1.00;;;19.50;38.30;;;;;;5003819;28;20870;-66
2021/12/04 10:59:40;;;;;;;2.73;0.77;;;19.40;38.40;;;;;;4999535;28;20450;-66
2021/12/04 11:04:48;;;;;;;3.13;0.90;;;19.40;38.40;;;;;;5001530;28;20434;-66
2021/12/04 11:07:56;;;;;;;1.07;0.80;;;19.40;38.40;;;;;;5002084;28;20725;-66
2021/12/04 11:37:56;;;;;;;1.00;0.90;;;19.40;38.60;;;;;;4995000;28;20442;-64
2021/12/04 11:43:01;;;;;;;1.17;1.03;;;19.40;38.70;;;;;;5001623;28;20431;-65
2021/12/04 11:45:44;;;;;;;1.97;0.90;;;19.40;38.60;;;;;;5002852;28;20465;-63
2021/12/04 11:48:10;;;;;;;1.87;1.77;;;19.40;38.70;;;;;;5001618;28;20445;-66
2021/12/04 11:50:40;;;;;;;1.33;0.90;;;19.40;38.70;;;;;;5002787;28;20456;-66
2021/12/04 11:53:09;;;;;;;1.30;0.90;;;19.40;38.70;;;;;;4998542;28;20346;-66
2021/12/04 11:55:40;;;;;;;0.80;0.80;;;19.40;38.70;;;;;;5002372;28;20451;-66
2021/12/04 11:58:22;;;;;;;2.50;0.90;;;19.40;38.70;;;;;;4999987;28;20438;-66
2021/12/04 12:00:49;;;;;;;1.60;0.80;;;19.40;38.70;;;;;;4997491;28;20442;-67
2021/12/04 12:03:23;;;;;;;0.90;0.80;;;19.40;38.60;;;;;;4991926;28;20477;-66
2021/12/04 12:05:55;;;;;;;2.13;1.10;;;19.40;38.60;;;;;;4999184;28;20967;-66
2021/12/04 12:08:42;;;;;;;4.20;1.30;;;19.50;38.60;;;;;;4991823;28;20449;-67
2021/12/04 12:11:24;;;;;;;1.50;1.20;;;19.40;38.50;;;;;;5001784;28;20441;-69
2021/12/04 12:13:55;;;;;;;1.20;1.10;;;19.50;38.50;;;;;;5002914;28;20992;-64
2021/12/04 12:16:25;;;;;;;2.03;1.20;;;19.50;38.50;;;;;;4999033;28;20508;-66
2021/12/04 12:19:00;;;;;;;1.77;0.90;;;19.50;38.50;;;;;;4998300;28;20539;-63
2021/12/04 12:22:17;;;;;;;1.20;0.90;;;19.50;38.40;;;;;;5001333;28;20470;-65
2021/12/04 12:37:51;;;;;;;54.10;10.20;;;19.60;38.50;;;;;;4999270;28;20466;-67
2021/12/04 12:40:19;;;;;;;64.27;12.37;;;19.70;38.50;;;;;;4998697;28;20528;-66
2021/12/04 12:42:45;;;;;;;59.23;11.57;;;19.70;38.60;;;;;;4998525;28;20505;-66
2021/12/04 12:45:20;;;;;;;94.53;15.53;;;19.70;38.50;;;;;;5001597;28;20918;-62
2021/12/04 12:48:07;;;;;;;57.03;12.47;;;19.80;38.60;;;;;;4996737;28;20524;-73
2021/12/04 12:50:42;;;;;;;50.93;13.40;;;19.80;38.60;;;;;;5000688;28;20453;-67
2021/12/04 12:53:13;;;;;;;42.00;9.93;;;19.90;38.70;;;;;;4999374;28;20462;-71
2021/12/04 12:55:41;;;;;;;36.07;8.60;;;19.90;38.70;;;;;;5002552;28;20963;-67
2021/12/04 12:58:23;;;;;;;23.17;8.13;;;19.90;38.70;;;;;;5003840;28;20471;-68
2021/12/04 13:12:02;;;;;;;9.10;3.50;;;20.00;38.30;;;;;;5000677;28;20457;-68
2021/12/04 13:14:37;;;;;;;4.80;2.83;;;20.00;38.00;;;;;;5002677;28;20457;-66
2021/12/04 13:17:06;;;;;;;7.23;3.73;;;20.00;37.90;;;;;;4999143;28;20918;-68
2021/12/04 13:19:36;;;;;;;5.43;3.40;;;20.00;37.80;;;;;;4998661;28;20953;-67
2021/12/04 13:22:05;;;;;;;7.20;2.90;;;20.00;37.70;;;;;;5005946;28;20452;-65
2021/12/04 13:24:35;;;;;;;6.67;2.37;;;20.00;37.70;;;;;;4997239;28;20508;-67
2021/12/04 13:29:41;;;;;;;8.60;3.10;;;20.00;37.50;;;;;;5002841;28;20461;-67
2021/12/04 13:32:10;;;;;;;4.73;2.60;;;20.00;37.60;;;;;;5004360;28;20441;-68
2021/12/04 13:34:37;;;;;;;4.77;3.00;;;20.00;37.70;;;;;;4997667;28;20419;-66
2021/12/04 13:37:04;;;;;;;3.40;2.80;;;19.90;37.80;;;;;;5001347;28;20462;-67
2021/12/04 13:39:29;;;;;;;7.03;3.80;;;19.90;37.90;;;;;;4998692;28;20461;-67
2021/12/04 13:41:55;;;;;;;5.80;2.87;;;19.90;37.90;;;;;;4998842;28;20998;-67
2021/12/04 13:44:23;;;;;;;4.47;2.77;;;19.90;38.10;;;;;;5001461;28;20212;-66
2021/12/04 13:46:52;;;;;;;5.33;3.37;;;19.90;38.10;;;;;;5003298;28;20306;-66
2021/12/04 13:49:21;;;;;;;2.60;2.40;;;19.90;38.20;;;;;;4997067;28;20454;-67
2021/12/04 13:51:56;;;;;;;4.30;2.40;;;19.90;38.20;;;;;;4999988;28;20469;-66
2021/12/04 13:54:24;;;;;;;2.97;2.20;;;19.90;38.30;;;;;;5000849;28;20506;-66
2021/12/04 13:56:50;;;;;;;4.40;2.87;;;19.80;38.20;;;;;;5002277;28;20949;-67
2021/12/04 13:59:22;;;;;;;3.53;2.63;;;19.80;38.30;;;;;;4999896;28;20450;-65
2021/12/04 14:01:47;;;;;;;7.43;2.70;;;19.80;38.30;;;;;;5000810;28;20231;-66
2021/12/04 14:04:16;;;;;;;3.80;2.50;;;19.80;38.30;;;;;;4995819;28;20449;-66
2021/12/04 14:06:51;;;;;;;3.40;2.40;;;19.80;38.50;;;;;;4999411;28;20280;-66
2021/12/04 14:09:18;;;;;;;2.40;2.10;;;19.80;38.50;;;;;;4999655;28;20943;-66
2021/12/04 14:11:45;;;;;;;2.93;1.80;;;19.80;38.50;;;;;;5000716;28;20458;-65
2021/12/04 14:14:23;;;;;;;1.70;1.57;;;19.80;38.60;;;;;;5000115;28;20447;-65
2021/12/04 14:16:51;;;;;;;2.53;1.77;;;19.80;38.50;;;;;;4999379;28;20469;-65
2021/12/04 14:19:28;;;;;;;2.60;1.77;;;19.80;38.60;;;;;;4996765;28;21097;-66
2021/12/04 14:22:04;;;;;;;4.43;1.80;;;19.80;38.60;;;;;;4996982;28;20449;-65
2021/12/04 14:24:42;;;;;;;2.57;1.90;;;19.70;38.60;;;;;;4998425;28;20481;-66
2021/12/04 14:27:10;;;;;;;2.30;2.07;;;19.70;38.60;;;;;;4998485;28;20445;-65
2021/12/04 14:29:43;;;;;;;2.00;1.80;;;19.70;38.60;;;;;;5000344;28;20939;-67
2021/12/04 14:32:11;;;;;;;2.60;1.63;;;19.70;38.70;;;;;;5002564;28;20530;-65
2021/12/04 14:34:37;;;;;;;1.80;1.70;;;19.70;38.70;;;;;;4999551;28;20436;-66
2021/12/04 14:37:13;;;;;;;3.63;1.70;;;19.80;38.70;;;;;;4997130;28;20536;-67
2021/12/04 14:39:43;;;;;;;1.70;1.50;;;19.70;38.70;;;;;;4997362;28;20500;-67
2021/12/04 14:42:31;;;;;;;2.10;1.80;;;19.70;38.60;;;;;;4999516;28;20445;-67
2021/12/04 14:45:06;;;;;;;2.13;1.77;;;19.70;38.60;;;;;;4995975;28;20462;-67
2021/12/04 14:47:37;;;;;;;2.37;1.60;;;19.70;38.60;;;;;;5001539;28;20547;-66
2021/12/04 14:50:07;;;;;;;1.50;1.40;;;19.70;38.60;;;;;;5004342;28;20439;-66
2021/12/04 14:52:34;;;;;;;2.03;1.83;;;19.70;38.60;;;;;;4998786;28;20425;-67
2021/12/04 14:55:16;;;;;;;1.90;1.50;;;19.70;38.70;;;;;;4990839;28;21008;-67
2021/12/04 14:57:43;;;;;;;1.67;1.57;;;19.70;38.70;;;;;;5002881;28;20435;-67
2021/12/04 15:00:18;;;;;;;2.23;1.57;;;19.70;38.70;;;;;;5000394;28;20454;-66
2021/12/04 15:03:00;;;;;;;1.90;1.50;;;19.70;38.80;;;;;;5003186;28;20484;-68
2021/12/04 15:05:34;;;;;;;1.63;1.50;;;19.70;38.80;;;;;;4999115;28;20509;-67
2021/12/04 15:08:06;;;;;;;2.07;1.40;;;19.60;38.70;;;;;;4998095;28;20859;-66
2021/12/04 15:10:31;;;;;;;1.33;1.23;;;19.60;38.80;;;;;;4999842;28;20445;-67
2021/12/04 15:12:59;;;;;;;1.40;1.20;;;19.60;38.70;;;;;;5001310;28;20453;-64
2021/12/04 15:15:29;;;;;;;1.53;1.30;;;19.70;39.60;;;;;;5002568;28;20220;-66
2021/12/04 15:17:57;;;;;;;2.23;1.40;;;19.60;38.70;;;;;;5002922;28;20458;-65
2021/12/04 15:20:31;;;;;;;1.70;1.60;;;19.60;38.80;;;;;;5003237;28;20454;-64
2021/12/04 15:22:58;;;;;;;3.10;1.27;;;19.60;38.80;;;;;;5001341;28;20526;-64
2021/12/04 15:25:30;;;;;;;1.70;1.57;;;19.60;38.70;;;;;;5007355;28;20454;-65
2021/12/04 15:27:56;;;;;;;1.30;1.20;;;19.60;38.80;;;;;;5002178;28;20532;-64
2021/12/04 15:30:22;;;;;;;4.70;1.30;;;19.60;38.70;;;;;;5001083;28;20474;-65
2021/12/04 15:32:48;;;;;;;1.30;1.07;;;19.60;38.80;;;;;;5000175;28;20890;-63
2021/12/04 15:35:36;;;;;;;2.00;1.50;;;19.60;38.80;;;;;;5007300;28;20528;-63
2021/12/04 15:38:07;;;;;;;3.50;1.40;;;19.60;39.50;;;;;;5000320;28;20223;-65
2021/12/04 15:40:48;;;;;;;1.50;1.40;;;19.60;38.60;;;;;;5001143;28;20533;-63
2021/12/04 15:49:07;;;;;;;3.50;1.47;;;19.70;38.70;;;;;;4999528;28;20440;-63
2021/12/04 15:54:27;;;;;;;1.33;1.23;;;19.70;38.70;;;;;;4997947;28;20479;-64
2021/12/04 15:56:54;;;;;;;3.90;1.30;;;19.70;38.70;;;;;;4999175;28;20452;-64
2021/12/04 15:59:20;;;;;;;3.73;1.40;;;19.70;38.70;;;;;;4999416;28;20441;-65
2021/12/04 16:01:47;;;;;;;2.93;1.30;;;19.70;38.80;;;;;;4996724;28;20951;-63
2021/12/04 16:04:30;;;;;;;1.40;1.20;;;19.70;38.80;;;;;;5001824;28;20640;-64
2021/12/04 16:06:58;;;;;;;1.40;1.30;;;19.70;38.90;;;;;;5000769;28;20469;-63
2021/12/04 16:09:35;;;;;;;1.40;1.30;;;19.70;38.80;;;;;;5000103;28;20936;-63
2021/12/04 16:12:12;;;;;;;1.80;1.70;;;19.70;38.90;;;;;;4997972;28;20540;-64
2021/12/04 16:14:43;;;;;;;1.93;1.30;;;19.70;38.80;;;;;;5000288;28;20445;-63